createdAt,value
2023-04-02T00:01:39.518Z,95793.16
2023-04-02T00:04:26.657Z,95801.38
2023-04-02T00:06:56.215Z,95799.03
2023-04-02T00:09:40.682Z,95805.59
2023-04-02T00:12:19.178Z,95801.03
2023-04-02T00:14:46.855Z,95809.06
2023-04-02T00:17:13.896Z,95801.03
2023-04-02T00:19:52.836Z,95808.06
2023-04-02T00:22:22.040Z,95813.91
2023-04-02T00:24:54.299Z,95815.69
2023-04-02T00:27:21.327Z,95816.75
2023-04-02T00:29:50.277Z,95811.16
2023-04-02T00:32:27.326Z,95814.34
2023-04-02T00:34:54.802Z,95811.69
2023-04-02T00:37:24.228Z,95797.69
2023-04-02T00:40:02.098Z,95808.94
2023-04-02T00:42:31.414Z,95813.38
2023-04-02T00:44:58.990Z,95815.38
2023-04-02T00:47:31.798Z,95827.69
2023-04-02T00:50:21.731Z,95824.03
2023-04-02T00:52:51.915Z,95840.44
2023-04-02T00:55:32.841Z,95829.06
2023-04-02T00:58:01.221Z,95816.78
2023-04-02T01:00:31.395Z,95820.53
2023-04-02T01:03:16.641Z,95815.06
2023-04-02T01:06:11.701Z,95815.81
2023-04-02T01:08:44.242Z,95816.94
2023-04-02T01:11:17.780Z,95832.66
2023-04-02T01:14:02.321Z,95825.06
2023-04-02T01:16:32.210Z,95823.53
2023-04-02T01:19:04.446Z,95830.16
2023-04-02T01:21:42.101Z,95843.25
2023-04-02T01:24:13.573Z,95837.13
2023-04-02T01:26:46.176Z,95834.41
2023-04-02T01:29:16.455Z,95832.31
2023-04-02T01:31:45.630Z,95833.69
2023-04-02T01:34:16.550Z,95836.91
2023-04-02T01:36:58.100Z,95826.09
2023-04-02T01:39:42.274Z,95828.91
2023-04-02T01:42:20.647Z,95826.38
2023-04-02T01:44:50.620Z,95830.91
2023-04-02T01:47:20.365Z,95832.38
2023-04-02T01:49:47.279Z,95832.13
2023-04-02T01:52:18.010Z,95827.66
2023-04-02T01:54:47.206Z,95829.13
2023-04-02T01:57:14.410Z,95834.91
2023-04-02T01:59:41.162Z,95840.81
2023-04-02T02:02:12.501Z,95843.75
2023-04-02T02:04:39.292Z,95843.44
2023-04-02T02:07:05.988Z,95849.91
2023-04-02T02:09:36.044Z,95848.63
2023-04-02T02:12:03.943Z,95851.81
2023-04-02T02:14:31.588Z,95857.25
2023-04-02T02:17:02.387Z,95862.63
2023-04-02T02:19:36.830Z,95865.88
2023-04-02T02:22:14.342Z,95862.22
2023-04-02T02:24:42.547Z,95867.25
2023-04-02T02:27:28.914Z,95869.34
2023-04-02T02:30:07.555Z,95870.94
2023-04-02T02:32:38.599Z,95875.09
2023-04-02T02:35:15.722Z,95878.88
2023-04-02T02:37:47.517Z,95881.88
2023-04-02T02:40:21.694Z,95877.72
2023-04-02T02:42:53.611Z,95889.88
2023-04-02T02:45:25.152Z,95892.25
2023-04-02T02:47:53.233Z,95892.03
2023-04-02T02:50:23.579Z,95889.84
2023-04-02T02:52:57.183Z,95895.13
2023-04-02T02:55:28.656Z,95893.72
2023-04-02T02:58:00.681Z,95896.69
2023-04-02T03:00:28.280Z,95902.31
2023-04-02T03:02:57.030Z,95901.28
2023-04-02T03:05:28.132Z,95910.72
2023-04-02T03:07:57.260Z,95906.16
2023-04-02T03:10:48.471Z,95913.81
2023-04-02T03:13:15.025Z,95915.53
2023-04-02T03:15:58.530Z,95915.88
2023-04-02T03:18:35.515Z,95917.84
2023-04-02T03:21:10.905Z,95910.44
2023-04-02T03:23:42.388Z,95915.88
2023-04-02T03:26:29.292Z,95922.53
2023-04-02T03:29:11.732Z,95924.94
2023-04-02T03:31:44.172Z,95927.44
2023-04-02T03:34:33.030Z,95924.13
2023-04-02T03:37:17.137Z,95926.28
2023-04-02T03:39:54.258Z,95925.03
2023-04-02T03:42:21.036Z,95933.88
2023-04-02T03:44:53.999Z,95935.13
2023-04-02T03:47:56.078Z,95950.38
2023-04-02T03:50:31.631Z,95946.25
2023-04-02T03:53:00.046Z,95948.19
2023-04-02T03:55:33.646Z,95946.25
2023-04-02T03:58:16.054Z,95949.56
2023-04-02T04:00:49.557Z,95951.19
2023-04-02T04:03:49.857Z,95953.59
2023-04-02T04:06:29.620Z,95953.47
2023-04-02T04:08:58.345Z,95957.25
2023-04-02T04:11:27.323Z,95959.66
2023-04-02T04:14:27.279Z,95957.25
2023-04-02T04:17:13.810Z,95954.59
2023-04-02T04:19:51.924Z,95963.22
2023-04-02T04:22:33.469Z,95967.13
2023-04-02T04:25:04.205Z,95965.38
2023-04-02T04:27:42.788Z,95971.47
2023-04-02T04:30:27.825Z,95971.78
2023-04-02T04:32:58.735Z,95972.34
2023-04-02T04:35:31.665Z,95977.78
2023-04-02T04:38:04.749Z,95977.88
2023-04-02T04:40:34.444Z,95977.63
2023-04-02T04:43:07.528Z,95984.53
2023-04-02T04:45:34.246Z,95984.75
2023-04-02T04:48:11.882Z,95976.03
2023-04-02T04:50:50.461Z,95985.91
2023-04-02T04:53:19.730Z,95982.13
2023-04-02T04:55:48.706Z,95986.25
2023-04-02T04:58:30.374Z,96003.09
2023-04-02T05:01:01.688Z,95994.16
2023-04-02T05:03:43.209Z,95996.44
2023-04-02T05:06:17.336Z,95995.41
2023-04-02T05:08:49.012Z,95999.19
2023-04-02T05:11:34.771Z,95995.63
2023-04-02T05:14:06.824Z,95998.16
2023-04-02T05:16:41.486Z,96009.94
2023-04-02T05:19:13.923Z,96012.03
2023-04-02T05:22:06.189Z,96010.19
2023-04-02T05:24:55.352Z,96009.25
2023-04-02T05:27:26.912Z,96015.53
2023-04-02T05:30:21.298Z,96017.44
2023-04-02T05:33:01.437Z,96020.66
2023-04-02T05:35:34.972Z,96024.41
2023-04-02T05:38:02.377Z,96026.59
2023-04-02T05:40:41.420Z,96022.25
2023-04-02T05:43:11.042Z,96018.03
2023-04-02T05:45:41.223Z,96028.94
2023-04-02T05:48:17.892Z,96046.75
2023-04-02T05:50:49.003Z,96049.50
2023-04-02T05:53:21.652Z,96041.28
2023-04-02T05:56:07.656Z,96047.25
2023-04-02T05:58:45.295Z,96048.63
2023-04-02T06:01:24.236Z,96049.09
2023-04-02T06:03:50.610Z,96054.81
2023-04-02T06:06:41.503Z,96053.09
2023-04-02T06:10:03.526Z,96052.53
2023-04-02T06:12:40.946Z,96059.53
2023-04-02T06:15:18.885Z,96056.50
2023-04-02T06:17:52.477Z,96060.66
2023-04-02T06:20:21.303Z,96057.69
2023-04-02T06:23:01.361Z,96055.47
2023-04-02T06:25:35.494Z,96056.03
2023-04-02T06:28:06.125Z,96063.94
2023-04-02T06:30:36.967Z,96060.38
2023-04-02T06:33:04.894Z,96059.09
2023-04-02T06:35:46.123Z,96063.03
2023-04-02T06:38:21.392Z,96066.00
2023-04-02T06:40:58.906Z,96062.88
2023-04-02T06:43:40.908Z,96075.94
2023-04-02T06:46:40.061Z,96065.94
2023-04-02T06:49:30.382Z,96074.38
2023-04-02T06:52:00.433Z,96072.31
2023-04-02T06:54:27.069Z,96072.44
2023-04-02T06:56:58.247Z,96077.56
2023-04-02T06:59:25.347Z,96083.84
2023-04-02T07:01:53.539Z,96079.31
2023-04-02T07:04:21.569Z,96080.47
2023-04-02T07:06:48.123Z,96079.28
2023-04-02T07:09:14.700Z,96077.34
2023-04-02T07:11:41.292Z,96076.03
2023-04-02T07:14:12.575Z,96080.13
2023-04-02T07:16:39.656Z,96074.63
2023-04-02T07:19:06.731Z,96082.13
2023-04-02T07:21:33.196Z,96078.03
2023-04-02T07:24:00.627Z,96087.50
2023-04-02T07:26:28.052Z,96079.94
2023-04-02T07:28:55.783Z,96090.00
2023-04-02T07:31:32.563Z,96084.38
2023-04-02T07:34:00.556Z,96083.44
2023-04-02T07:36:29.140Z,96086.25
2023-04-02T07:38:55.901Z,96084.06
2023-04-02T07:41:23.355Z,96084.06
2023-04-02T07:43:50.153Z,96084.44
2023-04-02T07:46:18.127Z,96089.38
2023-04-02T07:48:45.106Z,96080.78
2023-04-02T07:51:23.930Z,96089.19
2023-04-02T07:53:55.741Z,96082.78
2023-04-02T07:56:24.379Z,96084.28
2023-04-02T07:58:50.953Z,96087.19
2023-04-02T08:01:26.298Z,96083.53
2023-04-02T08:03:57.462Z,96082.31
2023-04-02T08:06:24.834Z,96074.53
2023-04-02T08:08:51.394Z,96084.47
2023-04-02T08:11:17.781Z,96083.72
2023-04-02T08:13:44.508Z,96077.56
2023-04-02T08:16:11.453Z,96073.44
2023-04-02T08:18:39.718Z,96081.06
2023-04-02T08:21:08.668Z,96073.03
2023-04-02T08:23:40.984Z,96077.84
2023-04-02T08:26:07.536Z,96078.84
2023-04-02T08:28:35.977Z,96081.97
2023-04-02T08:31:04.674Z,96086.09
2023-04-02T08:33:31.455Z,96081.19
2023-04-02T08:35:58.291Z,96089.84
2023-04-02T08:38:25.323Z,96080.41
2023-04-02T08:40:54.700Z,96080.78
2023-04-02T08:43:23.470Z,96084.34
2023-04-02T08:46:09.387Z,96075.63
2023-04-02T08:48:40.176Z,96073.69
2023-04-02T08:51:15.271Z,96067.03
2023-04-02T08:53:42.166Z,96068.16
2023-04-02T08:56:27.393Z,96064.22
2023-04-02T08:58:56.296Z,96070.34
2023-04-02T09:01:47.260Z,96081.03
2023-04-02T09:04:17.021Z,96070.75
2023-04-02T09:06:44.120Z,96070.69
2023-04-02T09:09:13.445Z,96076.22
2023-04-02T09:12:05.424Z,96083.91
2023-04-02T09:14:56.728Z,96082.06
2023-04-02T09:17:25.608Z,96076.38
2023-04-02T09:20:23.569Z,96073.50
2023-04-02T09:22:51.916Z,96067.75
2023-04-02T09:25:27.005Z,96071.78
2023-04-02T09:27:56.905Z,96083.13
2023-04-02T09:30:29.861Z,96082.28
2023-04-02T09:33:02.076Z,96080.06
2023-04-02T09:35:31.056Z,96088.19
2023-04-02T09:38:09.939Z,96085.97
2023-04-02T09:40:48.325Z,96097.69
2023-04-02T09:43:16.749Z,96091.66
2023-04-02T09:45:44.110Z,96096.63
2023-04-02T09:48:33.435Z,96104.06
2023-04-02T09:51:35.732Z,96106.31
2023-04-02T09:54:02.285Z,96106.34
2023-04-02T09:56:39.665Z,96107.09
2023-04-02T09:59:23.554Z,96099.72
2023-04-02T10:02:00.674Z,96097.03
2023-04-02T10:04:44.387Z,96099.78
2023-04-02T10:07:43.572Z,96100.31
2023-04-02T10:10:36.165Z,96094.66
2023-04-02T10:13:48.148Z,96098.44
2023-04-02T10:16:41.581Z,96096.69
2023-04-02T10:19:26.928Z,96094.09
2023-04-02T10:21:55.000Z,96101.78
2023-04-02T10:24:21.688Z,96103.00
2023-04-02T10:27:09.759Z,96103.56
2023-04-02T10:30:05.368Z,96101.91
2023-04-02T10:32:55.790Z,96110.94
2023-04-02T10:35:34.954Z,96109.97
2023-04-02T10:38:21.778Z,96103.91
2023-04-02T10:40:58.143Z,96106.13
2023-04-02T10:43:48.211Z,96117.97
2023-04-02T10:46:24.569Z,96110.56
2023-04-02T10:49:04.495Z,96112.00
2023-04-02T10:51:34.077Z,96118.63
2023-04-02T10:54:23.592Z,96115.72
2023-04-02T10:56:53.327Z,96114.28
2023-04-02T10:59:24.816Z,96120.59
2023-04-02T11:01:54.384Z,96123.81
2023-04-02T11:04:37.627Z,96122.91
2023-04-02T11:07:15.012Z,96120.50
2023-04-02T11:09:45.359Z,96123.94
2023-04-02T11:12:23.651Z,96131.38
2023-04-02T11:14:51.024Z,96123.09
2023-04-02T11:17:19.803Z,96129.16
2023-04-02T11:19:46.385Z,96132.03
2023-04-02T11:22:25.602Z,96131.03
2023-04-02T11:24:57.049Z,96134.56
2023-04-02T11:27:32.714Z,96133.34
2023-04-02T11:30:26.247Z,96138.47
2023-04-02T11:32:52.987Z,96140.41
2023-04-02T11:35:31.671Z,96132.25
2023-04-02T11:38:03.918Z,96127.44
2023-04-02T11:40:55.827Z,96128.41
2023-04-02T11:43:34.640Z,96132.53
2023-04-02T11:46:16.553Z,96128.66
2023-04-02T11:48:43.543Z,96132.41
2023-04-02T11:51:32.918Z,96135.41
2023-04-02T11:54:00.131Z,96134.69
2023-04-02T11:56:46.345Z,96140.53
2023-04-02T11:59:19.745Z,96136.81
2023-04-02T12:02:07.078Z,96143.78
2023-04-02T12:04:36.419Z,96144.34
2023-04-02T12:07:21.317Z,96146.81
2023-04-02T12:09:52.544Z,96142.22
2023-04-02T12:12:32.297Z,96153.13
2023-04-02T12:15:00.066Z,96149.44
2023-04-02T12:17:32.493Z,96154.06
2023-04-02T12:20:09.268Z,96155.44
2023-04-02T12:22:39.474Z,96149.19
2023-04-02T12:25:21.644Z,96151.44
2023-04-02T12:27:48.624Z,96151.72
2023-04-02T12:30:20.791Z,96152.03
2023-04-02T12:32:47.998Z,96146.09
2023-04-02T12:35:34.818Z,96153.81
2023-04-02T12:38:01.498Z,96156.34
2023-04-02T12:40:28.903Z,96164.09
2023-04-02T12:42:55.400Z,96159.13
2023-04-02T12:45:26.107Z,96156.56
2023-04-02T12:47:53.797Z,96164.16
2023-04-02T12:50:22.464Z,96160.31
2023-04-02T12:52:50.817Z,96169.63
2023-04-02T12:55:19.397Z,96162.22
2023-04-02T12:57:49.825Z,96171.25
2023-04-02T13:00:22.681Z,96165.81
2023-04-02T13:02:52.260Z,96161.81
2023-04-02T13:05:41.168Z,96157.91
2023-04-02T13:08:17.145Z,96151.53
2023-04-02T13:10:44.464Z,96151.94
2023-04-02T13:13:16.482Z,96149.03
2023-04-02T13:15:43.689Z,96152.34
2023-04-02T13:18:12.967Z,96148.88
2023-04-02T13:20:41.147Z,96147.81
2023-04-02T13:23:29.913Z,96150.78
2023-04-02T13:25:58.536Z,96147.84
2023-04-02T13:28:25.139Z,96149.16
2023-04-02T13:30:51.590Z,96137.63
2023-04-02T13:33:18.149Z,96141.09
2023-04-02T13:35:44.823Z,96145.69
2023-04-02T13:38:11.601Z,96144.44
2023-04-02T13:40:38.732Z,96142.94
2023-04-02T13:43:06.410Z,96151.00
2023-04-02T13:45:36.329Z,96147.84
2023-04-02T13:48:03.598Z,96140.63
2023-04-02T13:50:32.238Z,96132.13
2023-04-02T13:53:11.720Z,96134.91
2023-04-02T13:55:42.813Z,96138.22
2023-04-02T13:58:11.113Z,96138.31
2023-04-02T14:00:38.025Z,96138.75
2023-04-02T14:03:15.201Z,96141.81
2023-04-02T14:06:13.962Z,96132.63
2023-04-02T14:09:16.575Z,96141.44
2023-04-02T14:12:04.959Z,96139.41
2023-04-02T14:14:41.562Z,96151.63
2023-04-02T14:17:20.041Z,96147.66
2023-04-02T14:20:04.929Z,96148.38
2023-04-02T14:22:54.907Z,96153.09
2023-04-02T14:25:46.823Z,96161.31
2023-04-02T14:28:50.629Z,96159.59
2023-04-02T14:31:34.162Z,96157.91
2023-04-02T14:34:21.947Z,96158.84
2023-04-02T14:37:02.113Z,96170.25
2023-04-02T14:39:37.943Z,96174.72
2023-04-02T14:42:14.067Z,96168.50
2023-04-02T14:44:46.694Z,96173.31
2023-04-02T14:47:18.941Z,96175.13
2023-04-02T14:49:50.509Z,96172.91
2023-04-02T14:52:20.109Z,96174.13
2023-04-02T14:54:52.429Z,96162.56
2023-04-02T14:57:29.933Z,96166.34
2023-04-02T14:59:59.240Z,96167.66
2023-04-02T15:02:34.688Z,96166.13
2023-04-02T15:05:07.713Z,96166.91
2023-04-02T15:07:40.112Z,96169.44
2023-04-02T15:10:20.013Z,96169.25
2023-04-02T15:12:48.128Z,96166.34
2023-04-02T15:15:40.057Z,96175.75
2023-04-02T15:18:13.731Z,96177.41
2023-04-02T15:20:48.830Z,96174.66
2023-04-02T15:23:29.729Z,96179.72
2023-04-02T15:26:02.747Z,96184.78
2023-04-02T15:28:39.948Z,96182.09
2023-04-02T15:31:12.706Z,96190.25
2023-04-02T15:33:53.704Z,96190.56
2023-04-02T15:36:32.917Z,96196.50
2023-04-02T15:39:20.262Z,96196.13
2023-04-02T15:42:03.898Z,96195.69
2023-04-02T15:44:30.639Z,96196.56
2023-04-02T15:47:23.172Z,96194.69
2023-04-02T15:50:11.217Z,96197.22
2023-04-02T15:52:54.599Z,96206.31
2023-04-02T15:55:26.304Z,96211.38
2023-04-02T15:57:58.435Z,96211.38
2023-04-02T16:00:28.090Z,96213.03
2023-04-02T16:03:32.320Z,96214.38
2023-04-02T16:06:17.367Z,96226.41
2023-04-02T16:09:01.106Z,96228.38
2023-04-02T16:11:28.493Z,96233.75
2023-04-02T16:14:09.395Z,96233.59
2023-04-02T16:16:36.956Z,96233.84
2023-04-02T16:19:16.630Z,96234.25
2023-04-02T16:22:06.265Z,96235.44
2023-04-02T16:24:32.925Z,96232.25
2023-04-02T16:27:17.867Z,96234.81
2023-04-02T16:29:55.966Z,96242.41
2023-04-02T16:32:56.603Z,96241.34
2023-04-02T16:35:47.706Z,96251.78
2023-04-02T16:38:32.633Z,96240.69
2023-04-02T16:41:17.217Z,96236.28
2023-04-02T16:43:49.921Z,96257.13
2023-04-02T16:46:28.240Z,96256.47
2023-04-02T16:49:22.525Z,96257.44
2023-04-02T16:52:04.193Z,96261.94
2023-04-02T16:54:49.443Z,96263.56
2023-04-02T16:57:26.222Z,96271.22
2023-04-02T17:00:38.880Z,96273.66
2023-04-02T17:03:31.818Z,96279.78
2023-04-02T17:06:02.658Z,96281.31
2023-04-02T17:08:55.882Z,96282.63
2023-04-02T17:11:33.391Z,96305.19
2023-04-02T17:14:32.028Z,96307.56
2023-04-02T17:17:04.761Z,96296.44
2023-04-02T17:19:32.675Z,96296.19
2023-04-02T17:22:04.921Z,96300.16
2023-04-02T17:24:42.958Z,96296.75
2023-04-02T17:27:17.183Z,96305.06
2023-04-02T17:29:48.153Z,96302.00
2023-04-02T17:32:34.900Z,96307.81
2023-04-02T17:35:29.834Z,96324.38
2023-04-02T17:38:08.588Z,96319.84
2023-04-02T17:41:08.069Z,96328.88
2023-04-02T17:44:16.399Z,96331.53
2023-04-02T17:47:00.199Z,96333.44
2023-04-02T17:49:38.713Z,96336.91
2023-04-02T17:52:13.956Z,96340.75
2023-04-02T17:54:44.931Z,96352.53
2023-04-02T17:57:32.347Z,96351.78
2023-04-02T18:00:21.063Z,96350.19
2023-04-02T18:03:27.431Z,96349.28
2023-04-02T18:06:03.528Z,96359.28
2023-04-02T18:08:35.416Z,96373.69
2023-04-02T18:11:32.214Z,96372.53
2023-04-02T18:14:05.652Z,96368.41
2023-04-02T18:16:42.161Z,96373.31
2023-04-02T18:19:25.395Z,96378.03
2023-04-02T18:21:55.845Z,96379.19
2023-04-02T18:24:46.489Z,96386.78
2023-04-02T18:27:40.549Z,96395.22
2023-04-02T18:30:28.335Z,96390.63
2023-04-02T18:33:08.560Z,96401.41
2023-04-02T18:35:43.388Z,96404.88
2023-04-02T18:38:28.205Z,96409.28
2023-04-02T18:41:00.439Z,96405.84
2023-04-02T18:43:42.109Z,96418.13
2023-04-02T18:46:22.574Z,96421.72
2023-04-02T18:48:59.785Z,96428.59
2023-04-02T18:51:31.304Z,96427.88
2023-04-02T18:54:18.076Z,96430.41
2023-04-02T18:56:44.831Z,96435.34
2023-04-02T18:59:45.257Z,96447.38
2023-04-02T19:02:43.152Z,96459.91
2023-04-02T19:05:31.234Z,96452.69
2023-04-02T19:08:24.513Z,96459.59
2023-04-02T19:10:54.326Z,96470.50
2023-04-02T19:13:21.442Z,96474.06
2023-04-02T19:16:16.821Z,96485.34
2023-04-02T19:18:46.148Z,96489.69
2023-04-02T19:21:39.129Z,96492.38
2023-04-02T19:24:20.177Z,96498.91
2023-04-02T19:26:57.084Z,96499.25
2023-04-02T19:29:59.662Z,96505.91
2023-04-02T19:32:34.959Z,96513.53
2023-04-02T19:35:30.874Z,96509.72
2023-04-02T19:38:18.950Z,96513.19
2023-04-02T19:40:59.153Z,96521.72
2023-04-02T19:43:25.845Z,96515.94
2023-04-02T19:45:54.371Z,96527.59
2023-04-02T19:48:28.249Z,96528.25
2023-04-02T19:50:54.909Z,96536.66
2023-04-02T19:53:21.716Z,96530.88
2023-04-02T19:55:48.326Z,96540.69
2023-04-02T19:58:30.299Z,96541.38
2023-04-02T20:00:57.348Z,96540.78
2023-04-02T20:03:23.869Z,96547.34
2023-04-02T20:05:50.662Z,96554.38
2023-04-02T20:08:17.743Z,96555.28
2023-04-02T20:10:44.693Z,96553.78
2023-04-02T20:13:11.515Z,96551.25
2023-04-02T20:15:40.062Z,96554.94
2023-04-02T20:18:06.956Z,96557.19
2023-04-02T20:20:33.860Z,96555.31
2023-04-02T20:23:01.129Z,96560.25
2023-04-02T20:25:27.913Z,96562.06
2023-04-02T20:27:54.333Z,96567.72
2023-04-02T20:30:20.988Z,96569.94
2023-04-02T20:32:47.747Z,96576.47
2023-04-02T20:35:14.360Z,96579.44
2023-04-02T20:37:41.869Z,96580.38
2023-04-02T20:40:09.980Z,96580.75
2023-04-02T20:42:36.871Z,96575.31
2023-04-02T20:45:05.130Z,96586.56
2023-04-02T20:47:32.111Z,96579.50
2023-04-02T20:49:58.531Z,96586.28
2023-04-02T20:52:25.162Z,96581.19
2023-04-02T20:54:51.590Z,96580.53
2023-04-02T20:57:21.693Z,96582.91
2023-04-02T20:59:48.548Z,96586.41
2023-04-02T21:02:14.964Z,96593.81
2023-04-02T21:04:41.648Z,96593.75
2023-04-02T21:07:08.112Z,96594.78
2023-04-02T21:09:34.488Z,96590.91
2023-04-02T21:12:00.925Z,96601.69
2023-04-02T21:14:28.014Z,96596.84
2023-04-02T21:16:54.418Z,96602.66
2023-04-02T21:19:20.876Z,96607.31
2023-04-02T21:21:47.353Z,96609.69
2023-04-02T21:24:14.140Z,96606.97
2023-04-02T21:26:41.889Z,96603.50
2023-04-02T21:29:11.217Z,96607.41
2023-04-02T21:31:39.530Z,96614.75
2023-04-02T21:34:08.396Z,96612.88
2023-04-02T21:36:37.466Z,96622.53
2023-04-02T21:39:06.989Z,96620.75
2023-04-02T21:41:35.887Z,96623.38
2023-04-02T21:44:04.874Z,96627.75
2023-04-02T21:46:35.985Z,96619.63
2023-04-02T21:49:03.037Z,96629.31
2023-04-02T21:51:31.423Z,96637.22
2023-04-02T21:53:59.100Z,96644.22
2023-04-02T21:56:46.385Z,96638.97
2023-04-02T21:59:14.376Z,96641.91
2023-04-02T22:01:47.022Z,96649.69
2023-04-02T22:04:19.830Z,96646.38
2023-04-02T22:06:46.828Z,96645.78
2023-04-02T22:09:19.322Z,96649.41
2023-04-02T22:11:54.202Z,96649.31
2023-04-02T22:14:20.818Z,96649.28
2023-04-02T22:16:47.463Z,96647.78
2023-04-02T22:19:16.021Z,96648.41
2023-04-02T22:21:43.097Z,96654.06
2023-04-02T22:24:14.098Z,96649.59
2023-04-02T22:26:40.968Z,96662.94
2023-04-02T22:29:07.661Z,96662.75
2023-04-02T22:31:35.134Z,96662.31
2023-04-02T22:34:03.495Z,96664.75
2023-04-02T22:36:30.769Z,96664.22
2023-04-02T22:38:59.842Z,96668.16
2023-04-02T22:41:28.787Z,96670.19
2023-04-02T22:43:56.702Z,96668.25
2023-04-02T22:46:24.899Z,96662.69
2023-04-02T22:48:51.692Z,96670.19
2023-04-02T22:51:20.774Z,96667.25
2023-04-02T22:53:50.267Z,96672.41
2023-04-02T22:56:22.866Z,96669.50
2023-04-02T22:58:50.249Z,96677.03
2023-04-02T23:01:25.917Z,96670.59
2023-04-02T23:03:54.072Z,96663.81
2023-04-02T23:06:21.657Z,96662.94
2023-04-02T23:08:48.242Z,96665.31
2023-04-02T23:11:22.292Z,96665.13
2023-04-02T23:13:50.852Z,96666.97
2023-04-02T23:16:18.494Z,96659.47
2023-04-02T23:18:48.016Z,96662.00
2023-04-02T23:21:15.983Z,96666.75
2023-04-02T23:23:42.868Z,96661.31
2023-04-02T23:26:15.471Z,96671.63
2023-04-02T23:28:42.514Z,96667.47
2023-04-02T23:31:13.928Z,96664.44
2023-04-02T23:33:41.079Z,96664.75
2023-04-02T23:36:22.612Z,96657.47
2023-04-02T23:38:51.835Z,96659.28
2023-04-02T23:41:18.283Z,96657.06
2023-04-02T23:43:44.886Z,96659.09
2023-04-02T23:46:11.531Z,96662.31
2023-04-02T23:48:38.212Z,96663.13
2023-04-02T23:51:05.792Z,96664.53
2023-04-02T23:53:33.367Z,96668.19
2023-04-02T23:56:00.521Z,96664.97
2023-04-02T23:58:27.119Z,96671.91
